sensor_id;sensor_type;location;lat;lon;timestamp;temperature;humidity
20035;DHT22;10178;48.034;9.800;2024-02-14T00:01:04;5.90;99.90
20035;DHT22;10178;48.034;9.800;2024-02-14T00:03:29;6.00;99.90
20035;DHT22;10178;48.034;9.800;2024-02-14T00:05:55;6.10;99.90
20035;DHT22;10178;48.034;9.800;2024-02-14T00:08:22;6.10;99.90
20035;DHT22;10178;48.034;9.800;2024-02-14T00:10:48;5.10;99.90
20035;DHT22;10178;48.034;9.800;2024-02-14T00:13:14;4.70;99.90
20035;DHT22;10178;48.034;9.800;2024-02-14T00:15:40;4.90;99.90
20035;DHT22;10178;48.034;9.800;2024-02-14T00:18:06;4.80;99.90
20035;DHT22;10178;48.034;9.800;2024-02-14T00:20:31;4.80;99.90
20035;DHT22;10178;48.034;9.800;2024-02-14T00:22:58;4.80;99.90
20035;DHT22;10178;48.034;9.800;2024-02-14T00:25:23;5.10;99.90
20035;DHT22;10178;48.034;9.800;2024-02-14T00:27:49;5.40;99.90
20035;DHT22;10178;48.034;9.800;2024-02-14T00:30:15;5.40;99.90
20035;DHT22;10178;48.034;9.800;2024-02-14T00:32:40;4.10;99.90
20035;DHT22;10178;48.034;9.800;2024-02-14T00:35:07;4.10;99.90
20035;DHT22;10178;48.034;9.800;2024-02-14T00:37:33;4.10;99.90
20035;DHT22;10178;48.034;9.800;2024-02-14T00:39:59;4.40;99.90
20035;DHT22;10178;48.034;9.800;2024-02-14T00:42:25;5.00;99.90
20035;DHT22;10178;48.034;9.800;2024-02-14T00:44:51;4.30;99.90
20035;DHT22;10178;48.034;9.800;2024-02-14T00:47:17;3.90;99.90
20035;DHT22;10178;48.034;9.800;2024-02-14T00:49:42;3.90;99.90
20035;DHT22;10178;48.034;9.800;2024-02-14T00:52:08;3.80;99.90
20035;DHT22;10178;48.034;9.800;2024-02-14T00:54:34;3.20;99.90
20035;DHT22;10178;48.034;9.800;2024-02-14T00:57:00;3.10;99.90
20035;DHT22;10178;48.034;9.800;2024-02-14T00:59:26;2.70;99.90
20035;DHT22;10178;48.034;9.800;2024-02-14T01:01:51;2.60;99.90
20035;DHT22;10178;48.034;9.800;2024-02-14T01:04:17;2.90;99.90
20035;DHT22;10178;48.034;9.800;2024-02-14T01:06:43;3.30;99.90
20035;DHT22;10178;48.034;9.800;2024-02-14T01:09:08;3.20;99.90
20035;DHT22;10178;48.034;9.800;2024-02-14T01:11:34;3.00;99.90
20035;DHT22;10178;48.034;9.800;2024-02-14T01:14:00;3.40;99.90
20035;DHT22;10178;48.034;9.800;2024-02-14T01:16:27;3.90;99.90
20035;DHT22;10178;48.034;9.800;2024-02-14T01:18:52;4.10;99.90
20035;DHT22;10178;48.034;9.800;2024-02-14T01:21:18;4.20;99.90
20035;DHT22;10178;48.034;9.800;2024-02-14T01:23:44;3.70;99.90
20035;DHT22;10178;48.034;9.800;2024-02-14T01:26:09;3.40;99.90
20035;DHT22;10178;48.034;9.800;2024-02-14T01:28:35;3.10;99.90
20035;DHT22;10178;48.034;9.800;2024-02-14T01:31:01;2.80;99.90
20035;DHT22;10178;48.034;9.800;2024-02-14T01:33:26;2.90;99.90
20035;DHT22;10178;48.034;9.800;2024-02-14T01:35:52;3.30;99.90
20035;DHT22;10178;48.034;9.800;2024-02-14T01:38:18;3.30;99.90
20035;DHT22;10178;48.034;9.800;2024-02-14T01:40:44;3.20;99.90
20035;DHT22;10178;48.034;9.800;2024-02-14T01:43:10;3.30;99.90
20035;DHT22;10178;48.034;9.800;2024-02-14T01:45:37;4.00;99.90
20035;DHT22;10178;48.034;9.800;2024-02-14T01:48:04;4.50;99.90
20035;DHT22;10178;48.034;9.800;2024-02-14T01:50:31;4.50;99.90
20035;DHT22;10178;48.034;9.800;2024-02-14T01:53:00;4.50;99.90
20035;DHT22;10178;48.034;9.800;2024-02-14T01:55:27;5.00;99.90
20035;DHT22;10178;48.034;9.800;2024-02-14T01:57:54;4.70;99.90
20035;DHT22;10178;48.034;9.800;2024-02-14T02:00:20;3.80;99.90
20035;DHT22;10178;48.034;9.800;2024-02-14T02:02:46;3.00;99.90
20035;DHT22;10178;48.034;9.800;2024-02-14T02:05:13;2.60;99.90
20035;DHT22;10178;48.034;9.800;2024-02-14T02:07:39;2.60;99.90
20035;DHT22;10178;48.034;9.800;2024-02-14T02:10:09;2.60;99.90
20035;DHT22;10178;48.034;9.800;2024-02-14T02:12:36;3.10;99.90
20035;DHT22;10178;48.034;9.800;2024-02-14T02:15:05;3.60;99.90
20035;DHT22;10178;48.034;9.800;2024-02-14T02:17:32;3.40;99.90
20035;DHT22;10178;48.034;9.800;2024-02-14T02:20:00;3.20;99.90
20035;DHT22;10178;48.034;9.800;2024-02-14T02:22:26;3.00;99.90
20035;DHT22;10178;48.034;9.800;2024-02-14T02:24:51;3.20;99.90
20035;DHT22;10178;48.034;9.800;2024-02-14T02:27:17;3.10;99.90
20035;DHT22;10178;48.034;9.800;2024-02-14T02:29:43;3.10;99.90
20035;DHT22;10178;48.034;9.800;2024-02-14T02:32:08;2.90;99.90
20035;DHT22;10178;48.034;9.800;2024-02-14T02:34:35;2.70;99.90
20035;DHT22;10178;48.034;9.800;2024-02-14T02:37:04;2.60;99.90
20035;DHT22;10178;48.034;9.800;2024-02-14T02:39:33;2.50;99.90
20035;DHT22;10178;48.034;9.800;2024-02-14T02:41:59;2.60;99.90
20035;DHT22;10178;48.034;9.800;2024-02-14T02:44:25;2.60;99.90
20035;DHT22;10178;48.034;9.800;2024-02-14T02:46:51;2.60;99.90
20035;DHT22;10178;48.034;9.800;2024-02-14T02:49:16;2.70;99.90
20035;DHT22;10178;48.034;9.800;2024-02-14T02:51:42;2.70;99.90
20035;DHT22;10178;48.034;9.800;2024-02-14T02:54:07;2.70;99.90
20035;DHT22;10178;48.034;9.800;2024-02-14T02:56:34;2.70;99.90
20035;DHT22;10178;48.034;9.800;2024-02-14T02:58:59;3.10;99.90
20035;DHT22;10178;48.034;9.800;2024-02-14T03:01:27;3.10;99.90
20035;DHT22;10178;48.034;9.800;2024-02-14T03:03:53;3.10;99.90
20035;DHT22;10178;48.034;9.800;2024-02-14T03:06:19;3.20;99.90
20035;DHT22;10178;48.034;9.800;2024-02-14T03:08:45;3.00;99.90
20035;DHT22;10178;48.034;9.800;2024-02-14T03:11:11;2.90;99.90
20035;DHT22;10178;48.034;9.800;2024-02-14T03:13:37;3.00;99.90
20035;DHT22;10178;48.034;9.800;2024-02-14T03:16:06;3.40;99.90
20035;DHT22;10178;48.034;9.800;2024-02-14T03:18:32;3.60;99.90
20035;DHT22;10178;48.034;9.800;2024-02-14T03:20:58;3.60;99.90
20035;DHT22;10178;48.034;9.800;2024-02-14T03:23:23;3.80;99.90
20035;DHT22;10178;48.034;9.800;2024-02-14T03:25:49;4.20;99.90
20035;DHT22;10178;48.034;9.800;2024-02-14T03:28:16;4.40;99.90
20035;DHT22;10178;48.034;9.800;2024-02-14T03:30:42;4.60;99.90
20035;DHT22;10178;48.034;9.800;2024-02-14T03:33:08;4.50;99.90
20035;DHT22;10178;48.034;9.800;2024-02-14T03:35:34;4.30;99.90
20035;DHT22;10178;48.034;9.800;2024-02-14T03:38:02;4.40;99.90
20035;DHT22;10178;48.034;9.800;2024-02-14T03:40:29;4.40;99.90
20035;DHT22;10178;48.034;9.800;2024-02-14T03:42:56;4.40;99.90
20035;DHT22;10178;48.034;9.800;2024-02-14T03:45:22;4.40;99.90
20035;DHT22;10178;48.034;9.800;2024-02-14T03:47:48;4.30;99.90
20035;DHT22;10178;48.034;9.800;2024-02-14T03:50:13;4.30;99.90
20035;DHT22;10178;48.034;9.800;2024-02-14T03:52:40;4.20;99.90
20035;DHT22;10178;48.034;9.800;2024-02-14T03:55:08;4.50;99.90
20035;DHT22;10178;48.034;9.800;2024-02-14T03:57:34;4.70;99.90
20035;DHT22;10178;48.034;9.800;2024-02-14T04:00:04;4.90;99.90
20035;DHT22;10178;48.034;9.800;2024-02-14T04:02:33;4.90;99.90
20035;DHT22;10178;48.034;9.800;2024-02-14T04:04:58;4.90;99.90
20035;DHT22;10178;48.034;9.800;2024-02-14T04:07:24;4.80;99.90
20035;DHT22;10178;48.034;9.800;2024-02-14T04:09:50;4.90;99.90
20035;DHT22;10178;48.034;9.800;2024-02-14T04:12:16;5.10;99.90
20035;DHT22;10178;48.034;9.800;2024-02-14T04:14:41;5.30;99.90
20035;DHT22;10178;48.034;9.800;2024-02-14T04:17:07;5.40;99.90
20035;DHT22;10178;48.034;9.800;2024-02-14T04:19:33;5.50;99.90
20035;DHT22;10178;48.034;9.800;2024-02-14T04:21:59;5.50;99.90
20035;DHT22;10178;48.034;9.800;2024-02-14T04:24:24;5.70;99.90
20035;DHT22;10178;48.034;9.800;2024-02-14T04:26:50;5.60;99.90
20035;DHT22;10178;48.034;9.800;2024-02-14T04:29:15;5.60;99.90
20035;DHT22;10178;48.034;9.800;2024-02-14T04:31:41;5.60;99.90
20035;DHT22;10178;48.034;9.800;2024-02-14T04:34:08;5.40;99.90
20035;DHT22;10178;48.034;9.800;2024-02-14T04:36:35;5.20;99.90
20035;DHT22;10178;48.034;9.800;2024-02-14T04:39:01;4.80;99.90
20035;DHT22;10178;48.034;9.800;2024-02-14T04:41:27;4.60;99.90
20035;DHT22;10178;48.034;9.800;2024-02-14T04:43:52;4.70;99.90
20035;DHT22;10178;48.034;9.800;2024-02-14T04:46:18;4.70;99.90
20035;DHT22;10178;48.034;9.800;2024-02-14T04:48:43;4.80;99.90
20035;DHT22;10178;48.034;9.800;2024-02-14T04:51:09;4.90;99.90
20035;DHT22;10178;48.034;9.800;2024-02-14T04:53:35;4.90;99.90
20035;DHT22;10178;48.034;9.800;2024-02-14T04:56:01;4.90;99.90
20035;DHT22;10178;48.034;9.800;2024-02-14T04:58:26;5.00;99.90
20035;DHT22;10178;48.034;9.800;2024-02-14T05:00:52;5.20;99.90
20035;DHT22;10178;48.034;9.800;2024-02-14T05:03:18;5.20;99.90
20035;DHT22;10178;48.034;9.800;2024-02-14T05:05:44;5.00;99.90
20035;DHT22;10178;48.034;9.800;2024-02-14T05:08:09;4.70;99.90
20035;DHT22;10178;48.034;9.800;2024-02-14T05:10:35;4.10;99.90
20035;DHT22;10178;48.034;9.800;2024-02-14T05:13:01;4.00;99.90
20035;DHT22;10178;48.034;9.800;2024-02-14T05:15:26;3.70;99.90
20035;DHT22;10178;48.034;9.800;2024-02-14T05:17:52;3.50;99.90
20035;DHT22;10178;48.034;9.800;2024-02-14T05:20:18;3.40;99.90
20035;DHT22;10178;48.034;9.800;2024-02-14T05:22:44;3.40;99.90
20035;DHT22;10178;48.034;9.800;2024-02-14T05:25:09;3.60;99.90
20035;DHT22;10178;48.034;9.800;2024-02-14T05:27:35;3.60;99.90
20035;DHT22;10178;48.034;9.800;2024-02-14T05:30:03;3.60;99.90
20035;DHT22;10178;48.034;9.800;2024-02-14T05:32:34;3.80;99.90
20035;DHT22;10178;48.034;9.800;2024-02-14T05:35:00;3.90;99.90
20035;DHT22;10178;48.034;9.800;2024-02-14T05:37:25;4.10;99.90
20035;DHT22;10178;48.034;9.800;2024-02-14T05:39:54;4.30;99.90
20035;DHT22;10178;48.034;9.800;2024-02-14T05:42:20;4.60;99.90
20035;DHT22;10178;48.034;9.800;2024-02-14T05:44:47;4.80;99.90
20035;DHT22;10178;48.034;9.800;2024-02-14T05:47:12;4.90;99.90
20035;DHT22;10178;48.034;9.800;2024-02-14T05:49:39;4.60;99.90
20035;DHT22;10178;48.034;9.800;2024-02-14T05:52:06;4.40;99.90
20035;DHT22;10178;48.034;9.800;2024-02-14T05:54:32;4.40;99.90
20035;DHT22;10178;48.034;9.800;2024-02-14T05:56:57;4.30;99.90
20035;DHT22;10178;48.034;9.800;2024-02-14T05:59:23;4.20;99.90
20035;DHT22;10178;48.034;9.800;2024-02-14T06:01:49;4.00;99.90
20035;DHT22;10178;48.034;9.800;2024-02-14T06:04:15;4.20;99.90
20035;DHT22;10178;48.034;9.800;2024-02-14T06:06:40;4.00;99.90
20035;DHT22;10178;48.034;9.800;2024-02-14T06:09:06;4.30;99.90
20035;DHT22;10178;48.034;9.800;2024-02-14T06:11:36;4.50;99.90
20035;DHT22;10178;48.034;9.800;2024-02-14T06:14:04;4.80;99.90
20035;DHT22;10178;48.034;9.800;2024-02-14T06:16:30;4.90;99.90
20035;DHT22;10178;48.034;9.800;2024-02-14T06:18:56;5.10;99.90
20035;DHT22;10178;48.034;9.800;2024-02-14T06:21:21;5.10;99.90
20035;DHT22;10178;48.034;9.800;2024-02-14T06:23:47;5.20;99.90
20035;DHT22;10178;48.034;9.800;2024-02-14T06:26:13;5.20;99.90
20035;DHT22;10178;48.034;9.800;2024-02-14T06:28:39;5.20;99.90
20035;DHT22;10178;48.034;9.800;2024-02-14T06:31:05;5.30;99.90
20035;DHT22;10178;48.034;9.800;2024-02-14T06:33:30;5.40;99.90
20035;DHT22;10178;48.034;9.800;2024-02-14T06:35:56;5.50;99.90
20035;DHT22;10178;48.034;9.800;2024-02-14T06:38:22;5.40;99.90
20035;DHT22;10178;48.034;9.800;2024-02-14T06:40:47;5.40;99.90
20035;DHT22;10178;48.034;9.800;2024-02-14T06:43:13;5.40;99.90
20035;DHT22;10178;48.034;9.800;2024-02-14T06:45:39;5.40;99.90
20035;DHT22;10178;48.034;9.800;2024-02-14T06:48:05;5.50;99.90
20035;DHT22;10178;48.034;9.800;2024-02-14T06:50:31;5.50;99.90
20035;DHT22;10178;48.034;9.800;2024-02-14T06:52:56;5.50;99.90
20035;DHT22;10178;48.034;9.800;2024-02-14T06:55:26;5.50;99.90
20035;DHT22;10178;48.034;9.800;2024-02-14T06:57:52;5.50;99.90
20035;DHT22;10178;48.034;9.800;2024-02-14T07:00:18;5.60;99.90
20035;DHT22;10178;48.034;9.800;2024-02-14T07:02:44;5.60;99.90
20035;DHT22;10178;48.034;9.800;2024-02-14T07:05:12;5.60;99.90
20035;DHT22;10178;48.034;9.800;2024-02-14T07:07:42;5.60;99.90
20035;DHT22;10178;48.034;9.800;2024-02-14T07:10:08;5.70;99.90
20035;DHT22;10178;48.034;9.800;2024-02-14T07:12:34;5.70;99.90
20035;DHT22;10178;48.034;9.800;2024-02-14T07:15:02;5.70;99.90
20035;DHT22;10178;48.034;9.800;2024-02-14T07:17:29;5.70;99.90
20035;DHT22;10178;48.034;9.800;2024-02-14T07:19:55;5.80;99.90
20035;DHT22;10178;48.034;9.800;2024-02-14T07:22:21;5.80;99.90
20035;DHT22;10178;48.034;9.800;2024-02-14T07:24:47;5.80;99.90
20035;DHT22;10178;48.034;9.800;2024-02-14T07:27:14;5.80;99.90
20035;DHT22;10178;48.034;9.800;2024-02-14T07:29:40;5.90;99.90
20035;DHT22;10178;48.034;9.800;2024-02-14T07:32:06;5.90;99.90
20035;DHT22;10178;48.034;9.800;2024-02-14T07:34:32;5.90;99.90
20035;DHT22;10178;48.034;9.800;2024-02-14T07:36:59;5.90;99.90
20035;DHT22;10178;48.034;9.800;2024-02-14T07:39:24;6.00;99.90
20035;DHT22;10178;48.034;9.800;2024-02-14T07:41:51;5.90;99.90
20035;DHT22;10178;48.034;9.800;2024-02-14T07:44:17;5.90;99.90
20035;DHT22;10178;48.034;9.800;2024-02-14T07:46:43;5.90;99.90
20035;DHT22;10178;48.034;9.800;2024-02-14T07:49:09;6.00;99.90
20035;DHT22;10178;48.034;9.800;2024-02-14T07:51:35;6.00;99.90
20035;DHT22;10178;48.034;9.800;2024-02-14T07:54:04;6.00;99.90
20035;DHT22;10178;48.034;9.800;2024-02-14T07:56:29;6.10;99.90
20035;DHT22;10178;48.034;9.800;2024-02-14T07:58:55;6.10;99.90
20035;DHT22;10178;48.034;9.800;2024-02-14T08:01:21;6.20;99.90
20035;DHT22;10178;48.034;9.800;2024-02-14T08:03:46;6.20;99.90
20035;DHT22;10178;48.034;9.800;2024-02-14T08:06:13;6.20;99.90
20035;DHT22;10178;48.034;9.800;2024-02-14T08:08:38;6.30;99.90
20035;DHT22;10178;48.034;9.800;2024-02-14T08:11:04;6.40;99.90
20035;DHT22;10178;48.034;9.800;2024-02-14T08:13:30;6.30;99.90
20035;DHT22;10178;48.034;9.800;2024-02-14T08:15:56;6.40;99.90
20035;DHT22;10178;48.034;9.800;2024-02-14T08:18:21;6.40;99.90
20035;DHT22;10178;48.034;9.800;2024-02-14T08:20:48;6.50;99.90
20035;DHT22;10178;48.034;9.800;2024-02-14T08:23:14;6.60;99.90
20035;DHT22;10178;48.034;9.800;2024-02-14T08:25:39;6.70;99.90
20035;DHT22;10178;48.034;9.800;2024-02-14T08:28:06;6.80;99.90
20035;DHT22;10178;48.034;9.800;2024-02-14T08:30:33;6.90;99.90
20035;DHT22;10178;48.034;9.800;2024-02-14T08:32:59;6.90;99.90
20035;DHT22;10178;48.034;9.800;2024-02-14T08:35:24;6.80;99.90
20035;DHT22;10178;48.034;9.800;2024-02-14T08:37:51;6.80;99.90
20035;DHT22;10178;48.034;9.800;2024-02-14T08:40:17;6.90;99.90
20035;DHT22;10178;48.034;9.800;2024-02-14T08:42:42;7.00;99.90
20035;DHT22;10178;48.034;9.800;2024-02-14T08:45:08;7.10;99.90
20035;DHT22;10178;48.034;9.800;2024-02-14T08:47:34;7.20;99.90
20035;DHT22;10178;48.034;9.800;2024-02-14T08:50:00;7.30;99.90
20035;DHT22;10178;48.034;9.800;2024-02-14T08:52:26;7.30;99.90
20035;DHT22;10178;48.034;9.800;2024-02-14T08:54:52;7.30;99.90
20035;DHT22;10178;48.034;9.800;2024-02-14T08:57:17;7.20;99.90
20035;DHT22;10178;48.034;9.800;2024-02-14T08:59:44;7.20;99.90
20035;DHT22;10178;48.034;9.800;2024-02-14T09:02:12;7.10;99.90
20035;DHT22;10178;48.034;9.800;2024-02-14T09:04:39;7.20;99.90
20035;DHT22;10178;48.034;9.800;2024-02-14T09:07:06;7.20;99.90
20035;DHT22;10178;48.034;9.800;2024-02-14T09:09:33;7.20;99.90
20035;DHT22;10178;48.034;9.800;2024-02-14T09:11:58;7.20;99.90
20035;DHT22;10178;48.034;9.800;2024-02-14T09:14:28;7.20;99.90
20035;DHT22;10178;48.034;9.800;2024-02-14T09:16:55;7.40;99.90
20035;DHT22;10178;48.034;9.800;2024-02-14T09:19:21;7.40;99.90
20035;DHT22;10178;48.034;9.800;2024-02-14T09:21:47;7.60;99.90
20035;DHT22;10178;48.034;9.800;2024-02-14T09:24:13;7.80;99.90
20035;DHT22;10178;48.034;9.800;2024-02-14T09:26:38;7.80;99.90
20035;DHT22;10178;48.034;9.800;2024-02-14T09:29:05;7.80;99.90
20035;DHT22;10178;48.034;9.800;2024-02-14T09:31:31;7.90;99.90
20035;DHT22;10178;48.034;9.800;2024-02-14T09:33:57;7.90;99.90
20035;DHT22;10178;48.034;9.800;2024-02-14T09:36:24;8.00;99.90
20035;DHT22;10178;48.034;9.800;2024-02-14T09:38:51;8.00;99.90
20035;DHT22;10178;48.034;9.800;2024-02-14T09:41:36;8.00;99.90
20035;DHT22;10178;48.034;9.800;2024-02-14T09:44:03;8.00;99.90
20035;DHT22;10178;48.034;9.800;2024-02-14T09:46:29;8.10;99.90
20035;DHT22;10178;48.034;9.800;2024-02-14T09:48:58;8.10;99.90
20035;DHT22;10178;48.034;9.800;2024-02-14T09:51:28;8.00;99.90
20035;DHT22;10178;48.034;9.800;2024-02-14T09:53:55;8.00;99.90
20035;DHT22;10178;48.034;9.800;2024-02-14T09:56:21;8.00;99.90
20035;DHT22;10178;48.034;9.800;2024-02-14T09:58:50;8.00;99.90
20035;DHT22;10178;48.034;9.800;2024-02-14T10:01:24;7.90;99.90
20035;DHT22;10178;48.034;9.800;2024-02-14T10:03:51;7.80;99.90
20035;DHT22;10178;48.034;9.800;2024-02-14T10:06:20;7.90;99.90
20035;DHT22;10178;48.034;9.800;2024-02-14T10:08:55;8.00;99.90
20035;DHT22;10178;48.034;9.800;2024-02-14T10:11:21;8.00;99.90
20035;DHT22;10178;48.034;9.800;2024-02-14T10:13:48;8.10;99.90
20035;DHT22;10178;48.034;9.800;2024-02-14T10:16:15;8.00;99.90
20035;DHT22;10178;48.034;9.800;2024-02-14T10:18:41;8.20;99.90
20035;DHT22;10178;48.034;9.800;2024-02-14T10:21:15;8.00;99.90
20035;DHT22;10178;48.034;9.800;2024-02-14T10:23:43;8.00;99.90
20035;DHT22;10178;48.034;9.800;2024-02-14T10:26:09;7.90;99.90
20035;DHT22;10178;48.034;9.800;2024-02-14T10:28:34;7.90;99.90
20035;DHT22;10178;48.034;9.800;2024-02-14T10:31:00;8.00;99.90
20035;DHT22;10178;48.034;9.800;2024-02-14T10:33:28;8.00;99.90
20035;DHT22;10178;48.034;9.800;2024-02-14T10:35:55;8.00;99.90
20035;DHT22;10178;48.034;9.800;2024-02-14T10:38:22;8.10;99.90
20035;DHT22;10178;48.034;9.800;2024-02-14T10:40:49;8.20;99.90
20035;DHT22;10178;48.034;9.800;2024-02-14T10:43:16;8.30;99.90
20035;DHT22;10178;48.034;9.800;2024-02-14T10:45:42;8.40;99.90
20035;DHT22;10178;48.034;9.800;2024-02-14T10:48:11;8.40;99.90
20035;DHT22;10178;48.034;9.800;2024-02-14T10:50:40;8.40;99.90
20035;DHT22;10178;48.034;9.800;2024-02-14T10:53:07;8.50;99.90
20035;DHT22;10178;48.034;9.800;2024-02-14T10:55:36;8.50;99.90
20035;DHT22;10178;48.034;9.800;2024-02-14T10:58:03;8.40;99.90
20035;DHT22;10178;48.034;9.800;2024-02-14T11:00:29;8.30;99.90
20035;DHT22;10178;48.034;9.800;2024-02-14T11:02:55;8.40;99.90
20035;DHT22;10178;48.034;9.800;2024-02-14T11:05:21;8.50;99.90
20035;DHT22;10178;48.034;9.800;2024-02-14T11:07:49;8.50;99.90
20035;DHT22;10178;48.034;9.800;2024-02-14T11:10:19;8.50;99.90
20035;DHT22;10178;48.034;9.800;2024-02-14T11:12:47;8.60;99.90
20035;DHT22;10178;48.034;9.800;2024-02-14T11:15:22;8.60;99.90
20035;DHT22;10178;48.034;9.800;2024-02-14T11:17:48;8.60;99.90
20035;DHT22;10178;48.034;9.800;2024-02-14T11:22:53;8.80;99.90
20035;DHT22;10178;48.034;9.800;2024-02-14T11:25:23;8.80;99.90
20035;DHT22;10178;48.034;9.800;2024-02-14T11:27:50;8.90;99.90
20035;DHT22;10178;48.034;9.800;2024-02-14T11:30:30;8.90;99.90
20035;DHT22;10178;48.034;9.800;2024-02-14T11:33:23;9.30;99.90
20035;DHT22;10178;48.034;9.800;2024-02-14T11:35:53;9.70;99.90
20035;DHT22;10178;48.034;9.800;2024-02-14T11:38:20;9.80;99.90
20035;DHT22;10178;48.034;9.800;2024-02-14T11:40:46;9.80;99.90
20035;DHT22;10178;48.034;9.800;2024-02-14T11:43:18;9.80;99.90
20035;DHT22;10178;48.034;9.800;2024-02-14T11:48:47;9.70;99.90
20035;DHT22;10178;48.034;9.800;2024-02-14T11:51:14;9.80;99.90
20035;DHT22;10178;48.034;9.800;2024-02-14T11:53:40;9.90;99.90
20035;DHT22;10178;48.034;9.800;2024-02-14T11:56:06;10.00;99.90
20035;DHT22;10178;48.034;9.800;2024-02-14T11:58:32;10.10;99.90
20035;DHT22;10178;48.034;9.800;2024-02-14T12:00:57;10.10;99.90
20035;DHT22;10178;48.034;9.800;2024-02-14T12:03:23;10.30;99.90
20035;DHT22;10178;48.034;9.800;2024-02-14T12:05:51;10.40;99.90
20035;DHT22;10178;48.034;9.800;2024-02-14T12:08:18;10.40;99.90
20035;DHT22;10178;48.034;9.800;2024-02-14T12:10:44;10.40;99.90
20035;DHT22;10178;48.034;9.800;2024-02-14T12:13:16;10.50;99.90
20035;DHT22;10178;48.034;9.800;2024-02-14T12:15:45;10.60;99.90
20035;DHT22;10178;48.034;9.800;2024-02-14T12:18:11;10.70;99.90
20035;DHT22;10178;48.034;9.800;2024-02-14T12:20:43;10.60;99.90
20035;DHT22;10178;48.034;9.800;2024-02-14T12:23:17;10.50;99.90
20035;DHT22;10178;48.034;9.800;2024-02-14T12:25:43;10.50;99.90
20035;DHT22;10178;48.034;9.800;2024-02-14T12:28:29;10.70;99.90
20035;DHT22;10178;48.034;9.800;2024-02-14T12:30:57;10.70;99.90
20035;DHT22;10178;48.034;9.800;2024-02-14T12:33:26;11.00;99.90
20035;DHT22;10178;48.034;9.800;2024-02-14T12:35:54;11.20;99.90
20035;DHT22;10178;48.034;9.800;2024-02-14T12:38:21;11.30;99.90
20035;DHT22;10178;48.034;9.800;2024-02-14T12:40:48;11.30;99.90
20035;DHT22;10178;48.034;9.800;2024-02-14T12:43:15;11.20;99.90
20035;DHT22;10178;48.034;9.800;2024-02-14T12:45:43;11.40;99.90
20035;DHT22;10178;48.034;9.800;2024-02-14T12:48:11;11.50;99.90
20035;DHT22;10178;48.034;9.800;2024-02-14T12:50:37;11.50;99.90
20035;DHT22;10178;48.034;9.800;2024-02-14T12:53:09;11.70;99.90
20035;DHT22;10178;48.034;9.800;2024-02-14T12:55:35;11.50;99.90
20035;DHT22;10178;48.034;9.800;2024-02-14T12:58:01;11.20;99.90
20035;DHT22;10178;48.034;9.800;2024-02-14T13:00:27;11.30;99.90
20035;DHT22;10178;48.034;9.800;2024-02-14T13:02:54;11.30;99.90
20035;DHT22;10178;48.034;9.800;2024-02-14T13:05:20;11.20;99.90
20035;DHT22;10178;48.034;9.800;2024-02-14T13:07:46;10.90;99.90
20035;DHT22;10178;48.034;9.800;2024-02-14T13:10:12;11.10;99.90
20035;DHT22;10178;48.034;9.800;2024-02-14T13:12:38;11.30;99.90
20035;DHT22;10178;48.034;9.800;2024-02-14T13:15:05;11.40;99.90
20035;DHT22;10178;48.034;9.800;2024-02-14T13:17:31;11.20;99.90
20035;DHT22;10178;48.034;9.800;2024-02-14T13:19:56;11.10;99.90
20035;DHT22;10178;48.034;9.800;2024-02-14T13:22:22;11.20;99.90
20035;DHT22;10178;48.034;9.800;2024-02-14T13:24:48;11.40;99.90
20035;DHT22;10178;48.034;9.800;2024-02-14T13:27:14;11.30;99.90
20035;DHT22;10178;48.034;9.800;2024-02-14T13:29:40;11.20;99.90
20035;DHT22;10178;48.034;9.800;2024-02-14T13:32:06;11.40;99.90
20035;DHT22;10178;48.034;9.800;2024-02-14T13:34:33;11.10;99.90
20035;DHT22;10178;48.034;9.800;2024-02-14T13:36:59;11.00;99.90
20035;DHT22;10178;48.034;9.800;2024-02-14T13:39:25;11.10;99.90
20035;DHT22;10178;48.034;9.800;2024-02-14T13:41:51;11.30;99.90
20035;DHT22;10178;48.034;9.800;2024-02-14T13:44:17;11.20;99.90
20035;DHT22;10178;48.034;9.800;2024-02-14T13:46:45;11.00;99.90
20035;DHT22;10178;48.034;9.800;2024-02-14T13:49:16;11.00;99.90
20035;DHT22;10178;48.034;9.800;2024-02-14T13:51:47;11.30;99.90
20035;DHT22;10178;48.034;9.800;2024-02-14T13:54:13;11.20;99.90
20035;DHT22;10178;48.034;9.800;2024-02-14T13:56:39;11.10;99.90
20035;DHT22;10178;48.034;9.800;2024-02-14T13:59:04;10.90;99.90
20035;DHT22;10178;48.034;9.800;2024-02-14T14:01:30;10.90;99.90
20035;DHT22;10178;48.034;9.800;2024-02-14T14:03:55;11.20;99.90
20035;DHT22;10178;48.034;9.800;2024-02-14T14:06:23;11.20;99.90
20035;DHT22;10178;48.034;9.800;2024-02-14T14:08:50;11.30;99.90
20035;DHT22;10178;48.034;9.800;2024-02-14T14:11:16;11.30;99.90
20035;DHT22;10178;48.034;9.800;2024-02-14T14:13:42;11.40;99.90
20035;DHT22;10178;48.034;9.800;2024-02-14T14:16:08;11.30;99.90
20035;DHT22;10178;48.034;9.800;2024-02-14T14:18:34;11.30;99.90
20035;DHT22;10178;48.034;9.800;2024-02-14T14:21:00;11.20;99.90
20035;DHT22;10178;48.034;9.800;2024-02-14T14:23:26;11.40;99.90
20035;DHT22;10178;48.034;9.800;2024-02-14T14:25:51;11.60;99.90
20035;DHT22;10178;48.034;9.800;2024-02-14T14:28:17;11.60;99.90
20035;DHT22;10178;48.034;9.800;2024-02-14T14:30:45;11.60;99.90
20035;DHT22;10178;48.034;9.800;2024-02-14T14:33:11;11.60;99.90
20035;DHT22;10178;48.034;9.800;2024-02-14T14:35:36;11.60;99.90
20035;DHT22;10178;48.034;9.800;2024-02-14T14:38:03;11.50;99.90
20035;DHT22;10178;48.034;9.800;2024-02-14T14:40:29;11.40;99.90
20035;DHT22;10178;48.034;9.800;2024-02-14T14:42:54;11.40;99.90
20035;DHT22;10178;48.034;9.800;2024-02-14T14:45:20;11.30;99.90
20035;DHT22;10178;48.034;9.800;2024-02-14T14:47:46;11.20;99.90
20035;DHT22;10178;48.034;9.800;2024-02-14T14:50:12;11.20;99.90
20035;DHT22;10178;48.034;9.800;2024-02-14T14:52:41;11.20;99.90
20035;DHT22;10178;48.034;9.800;2024-02-14T14:55:09;11.40;99.90
20035;DHT22;10178;48.034;9.800;2024-02-14T14:57:35;11.50;99.90
20035;DHT22;10178;48.034;9.800;2024-02-14T15:00:07;11.60;99.90
20035;DHT22;10178;48.034;9.800;2024-02-14T15:02:38;11.70;99.90
20035;DHT22;10178;48.034;9.800;2024-02-14T15:05:04;11.70;99.90
20035;DHT22;10178;48.034;9.800;2024-02-14T15:07:30;11.60;99.90
20035;DHT22;10178;48.034;9.800;2024-02-14T15:09:56;11.60;99.90
20035;DHT22;10178;48.034;9.800;2024-02-14T15:12:42;11.60;99.90
20035;DHT22;10178;48.034;9.800;2024-02-14T15:15:07;11.50;99.90
20035;DHT22;10178;48.034;9.800;2024-02-14T15:17:33;11.40;99.90
20035;DHT22;10178;48.034;9.800;2024-02-14T15:19:59;11.40;99.90
20035;DHT22;10178;48.034;9.800;2024-02-14T15:22:24;11.50;99.90
20035;DHT22;10178;48.034;9.800;2024-02-14T15:24:53;11.50;99.90
20035;DHT22;10178;48.034;9.800;2024-02-14T15:27:19;11.50;99.90
20035;DHT22;10178;48.034;9.800;2024-02-14T15:29:49;11.50;99.90
20035;DHT22;10178;48.034;9.800;2024-02-14T15:32:33;11.50;99.90
20035;DHT22;10178;48.034;9.800;2024-02-14T15:40:21;11.30;99.90
20035;DHT22;10178;48.034;9.800;2024-02-14T15:42:47;11.30;99.90
20035;DHT22;10178;48.034;9.800;2024-02-14T15:45:13;11.30;99.90
20035;DHT22;10178;48.034;9.800;2024-02-14T15:47:46;11.40;99.90
20035;DHT22;10178;48.034;9.800;2024-02-14T15:50:12;11.40;99.90